sensor_id;sensor_type;location;lat;lon;timestamp;P1;durP1;ratioP1;P2;durP2;ratioP2
79664;SDS011;69132;44.014;20.918;2024-03-25T04:30:28;17.02;;;10.45;;
79664;SDS011;69132;44.014;20.918;2024-03-25T04:32:54;16.25;;;10.05;;
79664;SDS011;69132;44.014;20.918;2024-03-25T04:35:20;24.25;;;10.30;;
79664;SDS011;69132;44.014;20.918;2024-03-25T04:37:46;26.35;;;12.30;;
79664;SDS011;69132;44.014;20.918;2024-03-25T04:40:12;17.20;;;11.55;;
79664;SDS011;69132;44.014;20.918;2024-03-25T04:42:44;14.23;;;9.93;;
79664;SDS011;69132;44.014;20.918;2024-03-25T04:45:10;33.42;;;11.25;;
79664;SDS011;69132;44.014;20.918;2024-03-25T04:47:37;16.83;;;9.57;;
79664;SDS011;69132;44.014;20.918;2024-03-25T04:50:03;22.92;;;10.82;;
79664;SDS011;69132;44.014;20.918;2024-03-25T04:52:30;15.63;;;9.73;;
79664;SDS011;69132;44.014;20.918;2024-03-25T04:54:56;14.40;;;9.95;;
79664;SDS011;69132;44.014;20.918;2024-03-25T04:57:23;11.55;;;8.63;;
79664;SDS011;69132;44.014;20.918;2024-03-25T04:59:49;17.30;;;10.43;;
79664;SDS011;69132;44.014;20.918;2024-03-25T05:02:15;25.20;;;12.27;;
79664;SDS011;69132;44.014;20.918;2024-03-25T05:04:42;17.20;;;9.13;;
79664;SDS011;69132;44.014;20.918;2024-03-25T05:07:08;20.98;;;10.93;;
79664;SDS011;69132;44.014;20.918;2024-03-25T05:09:36;15.20;;;10.23;;
79664;SDS011;69132;44.014;20.918;2024-03-25T05:12:02;13.93;;;9.65;;
79664;SDS011;69132;44.014;20.918;2024-03-25T05:14:28;17.52;;;9.90;;
79664;SDS011;69132;44.014;20.918;2024-03-25T05:16:54;25.63;;;10.40;;
79664;SDS011;69132;44.014;20.918;2024-03-25T05:19:21;18.00;;;10.10;;
79664;SDS011;69132;44.014;20.918;2024-03-25T05:21:48;13.27;;;10.00;;
79664;SDS011;69132;44.014;20.918;2024-03-25T05:24:14;14.55;;;9.35;;
79664;SDS011;69132;44.014;20.918;2024-03-25T05:26:40;17.80;;;10.75;;
79664;SDS011;69132;44.014;20.918;2024-03-25T05:29:06;30.17;;;12.18;;
79664;SDS011;69132;44.014;20.918;2024-03-25T05:31:34;13.75;;;10.07;;
79664;SDS011;69132;44.014;20.918;2024-03-25T05:34:01;14.55;;;10.77;;
79664;SDS011;69132;44.014;20.918;2024-03-25T05:36:34;18.17;;;10.25;;
79664;SDS011;69132;44.014;20.918;2024-03-25T05:39:00;17.35;;;9.65;;
79664;SDS011;69132;44.014;20.918;2024-03-25T05:41:26;17.52;;;10.35;;
79664;SDS011;69132;44.014;20.918;2024-03-25T05:43:53;17.73;;;10.18;;
79664;SDS011;69132;44.014;20.918;2024-03-25T05:46:21;11.40;;;8.98;;
79664;SDS011;69132;44.014;20.918;2024-03-25T05:48:47;20.88;;;11.73;;
79664;SDS011;69132;44.014;20.918;2024-03-25T05:51:14;15.88;;;10.13;;
79664;SDS011;69132;44.014;20.918;2024-03-25T05:53:40;16.73;;;10.20;;
79664;SDS011;69132;44.014;20.918;2024-03-25T05:56:06;15.82;;;10.75;;
79664;SDS011;69132;44.014;20.918;2024-03-25T05:58:32;19.35;;;11.38;;
79664;SDS011;69132;44.014;20.918;2024-03-25T06:00:58;14.98;;;9.80;;
79664;SDS011;69132;44.014;20.918;2024-03-25T06:03:26;20.55;;;11.43;;
79664;SDS011;69132;44.014;20.918;2024-03-25T06:05:53;14.38;;;10.23;;
79664;SDS011;69132;44.014;20.918;2024-03-25T06:08:19;21.23;;;13.65;;
79664;SDS011;69132;44.014;20.918;2024-03-25T06:11:08;21.58;;;11.60;;
79664;SDS011;69132;44.014;20.918;2024-03-25T06:13:35;20.95;;;14.05;;
79664;SDS011;69132;44.014;20.918;2024-03-25T06:16:02;23.55;;;14.20;;
79664;SDS011;69132;44.014;20.918;2024-03-25T06:18:29;25.75;;;16.58;;
79664;SDS011;69132;44.014;20.918;2024-03-25T06:20:55;28.23;;;14.82;;
79664;SDS011;69132;44.014;20.918;2024-03-25T06:23:25;28.42;;;16.65;;
79664;SDS011;69132;44.014;20.918;2024-03-25T06:25:52;26.52;;;15.45;;
79664;SDS011;69132;44.014;20.918;2024-03-25T06:28:19;26.17;;;15.55;;
79664;SDS011;69132;44.014;20.918;2024-03-25T06:30:46;17.92;;;12.10;;
79664;SDS011;69132;44.014;20.918;2024-03-25T06:33:32;17.33;;;12.35;;
79664;SDS011;69132;44.014;20.918;2024-03-25T06:38:12;14.70;;;10.73;;
79664;SDS011;69132;44.014;20.918;2024-03-25T06:40:38;15.20;;;10.82;;
79664;SDS011;69132;44.014;20.918;2024-03-25T06:43:04;17.80;;;12.90;;
79664;SDS011;69132;44.014;20.918;2024-03-25T06:45:31;23.23;;;13.30;;
79664;SDS011;69132;44.014;20.918;2024-03-25T06:47:57;22.08;;;13.85;;
79664;SDS011;69132;44.014;20.918;2024-03-25T06:50:23;19.85;;;12.60;;
79664;SDS011;69132;44.014;20.918;2024-03-25T06:52:50;25.98;;;15.60;;
79664;SDS011;69132;44.014;20.918;2024-03-25T06:55:18;28.77;;;13.45;;
79664;SDS011;69132;44.014;20.918;2024-03-25T06:57:49;22.63;;;13.65;;
79664;SDS011;69132;44.014;20.918;2024-03-25T07:00:15;25.25;;;14.93;;
79664;SDS011;69132;44.014;20.918;2024-03-25T07:02:41;22.67;;;12.93;;
79664;SDS011;69132;44.014;20.918;2024-03-25T07:05:09;21.08;;;12.40;;
79664;SDS011;69132;44.014;20.918;2024-03-25T07:07:35;23.92;;;14.27;;
79664;SDS011;69132;44.014;20.918;2024-03-25T07:10:01;16.98;;;13.05;;
79664;SDS011;69132;44.014;20.918;2024-03-25T07:12:27;20.63;;;13.10;;
79664;SDS011;69132;44.014;20.918;2024-03-25T07:14:54;19.75;;;12.85;;
79664;SDS011;69132;44.014;20.918;2024-03-25T07:17:20;16.92;;;11.43;;
79664;SDS011;69132;44.014;20.918;2024-03-25T07:19:47;19.52;;;11.75;;
79664;SDS011;69132;44.014;20.918;2024-03-25T07:22:13;15.55;;;11.95;;
79664;SDS011;69132;44.014;20.918;2024-03-25T07:24:39;15.98;;;11.27;;
79664;SDS011;69132;44.014;20.918;2024-03-25T07:27:06;13.10;;;9.50;;
79664;SDS011;69132;44.014;20.918;2024-03-25T07:29:33;13.70;;;10.35;;
79664;SDS011;69132;44.014;20.918;2024-03-25T07:31:59;17.95;;;9.57;;
79664;SDS011;69132;44.014;20.918;2024-03-25T07:34:26;12.32;;;8.68;;
79664;SDS011;69132;44.014;20.918;2024-03-25T07:36:53;13.13;;;8.50;;
79664;SDS011;69132;44.014;20.918;2024-03-25T07:39:19;15.82;;;9.43;;
79664;SDS011;69132;44.014;20.918;2024-03-25T07:41:49;24.08;;;9.77;;
79664;SDS011;69132;44.014;20.918;2024-03-25T07:44:15;9.48;;;6.30;;
79664;SDS011;69132;44.014;20.918;2024-03-25T07:46:41;9.57;;;6.38;;
79664;SDS011;69132;44.014;20.918;2024-03-25T07:49:07;15.88;;;6.68;;
79664;SDS011;69132;44.014;20.918;2024-03-25T07:51:38;11.00;;;5.30;;
79664;SDS011;69132;44.014;20.918;2024-03-25T07:54:07;8.30;;;5.35;;
79664;SDS011;69132;44.014;20.918;2024-03-25T07:56:36;6.47;;;4.77;;
79664;SDS011;69132;44.014;20.918;2024-03-25T07:59:02;13.30;;;6.32;;
79664;SDS011;69132;44.014;20.918;2024-03-25T08:01:29;17.05;;;6.85;;
79664;SDS011;69132;44.014;20.918;2024-03-25T08:03:56;12.32;;;7.00;;
79664;SDS011;69132;44.014;20.918;2024-03-25T08:06:22;9.95;;;5.55;;
79664;SDS011;69132;44.014;20.918;2024-03-25T08:08:49;12.85;;;5.90;;
79664;SDS011;69132;44.014;20.918;2024-03-25T08:11:15;7.45;;;5.40;;
79664;SDS011;69132;44.014;20.918;2024-03-25T08:13:41;9.23;;;5.32;;
79664;SDS011;69132;44.014;20.918;2024-03-25T08:16:11;10.90;;;5.25;;
79664;SDS011;69132;44.014;20.918;2024-03-25T08:18:37;7.80;;;4.55;;
79664;SDS011;69132;44.014;20.918;2024-03-25T08:21:03;7.22;;;4.65;;
79664;SDS011;69132;44.014;20.918;2024-03-25T08:23:29;9.50;;;4.22;;
79664;SDS011;69132;44.014;20.918;2024-03-25T08:25:55;9.95;;;4.20;;
79664;SDS011;69132;44.014;20.918;2024-03-25T08:28:21;9.05;;;4.60;;
79664;SDS011;69132;44.014;20.918;2024-03-25T08:30:47;10.38;;;4.38;;
79664;SDS011;69132;44.014;20.918;2024-03-25T08:33:13;7.47;;;4.68;;
79664;SDS011;69132;44.014;20.918;2024-03-25T08:35:39;12.65;;;7.80;;
79664;SDS011;69132;44.014;20.918;2024-03-25T08:38:07;8.48;;;3.97;;
79664;SDS011;69132;44.014;20.918;2024-03-25T08:40:33;5.15;;;3.65;;
79664;SDS011;69132;44.014;20.918;2024-03-25T08:43:00;6.80;;;4.22;;
79664;SDS011;69132;44.014;20.918;2024-03-25T08:45:26;10.40;;;4.13;;
79664;SDS011;69132;44.014;20.918;2024-03-25T08:47:52;39.75;;;6.75;;
79664;SDS011;69132;44.014;20.918;2024-03-25T08:50:18;7.35;;;3.00;;
79664;SDS011;69132;44.014;20.918;2024-03-25T08:52:46;6.38;;;3.13;;
79664;SDS011;69132;44.014;20.918;2024-03-25T08:55:12;8.25;;;4.60;;
79664;SDS011;69132;44.014;20.918;2024-03-25T08:57:38;4.05;;;2.95;;
79664;SDS011;69132;44.014;20.918;2024-03-25T09:00:04;4.93;;;2.83;;
79664;SDS011;69132;44.014;20.918;2024-03-25T09:02:36;5.28;;;2.85;;
79664;SDS011;69132;44.014;20.918;2024-03-25T09:05:11;2.80;;;2.33;;
79664;SDS011;69132;44.014;20.918;2024-03-25T09:07:38;7.15;;;4.07;;
79664;SDS011;69132;44.014;20.918;2024-03-25T09:10:05;4.70;;;3.08;;
79664;SDS011;69132;44.014;20.918;2024-03-25T09:12:50;7.63;;;3.60;;
79664;SDS011;69132;44.014;20.918;2024-03-25T09:15:16;2.97;;;2.63;;
79664;SDS011;69132;44.014;20.918;2024-03-25T09:17:43;3.10;;;2.63;;
79664;SDS011;69132;44.014;20.918;2024-03-25T09:20:10;11.90;;;4.10;;
79664;SDS011;69132;44.014;20.918;2024-03-25T09:22:48;7.50;;;4.18;;
79664;SDS011;69132;44.014;20.918;2024-03-25T09:25:15;6.18;;;3.83;;
79664;SDS011;69132;44.014;20.918;2024-03-25T09:27:41;7.63;;;3.10;;
79664;SDS011;69132;44.014;20.918;2024-03-25T09:30:07;5.30;;;2.53;;
79664;SDS011;69132;44.014;20.918;2024-03-25T09:32:34;4.85;;;3.10;;
79664;SDS011;69132;44.014;20.918;2024-03-25T09:35:01;2.83;;;2.08;;
79664;SDS011;69132;44.014;20.918;2024-03-25T09:37:27;6.45;;;2.58;;
79664;SDS011;69132;44.014;20.918;2024-03-25T09:39:54;4.43;;;2.47;;
79664;SDS011;69132;44.014;20.918;2024-03-25T09:42:27;2.60;;;1.92;;
79664;SDS011;69132;44.014;20.918;2024-03-25T09:44:54;6.43;;;2.25;;
79664;SDS011;69132;44.014;20.918;2024-03-25T09:47:21;5.45;;;3.17;;
79664;SDS011;69132;44.014;20.918;2024-03-25T09:49:47;2.65;;;2.28;;
79664;SDS011;69132;44.014;20.918;2024-03-25T09:52:14;4.65;;;2.70;;
79664;SDS011;69132;44.014;20.918;2024-03-25T09:54:40;5.80;;;2.67;;
79664;SDS011;69132;44.014;20.918;2024-03-25T09:57:09;4.10;;;2.92;;
79664;SDS011;69132;44.014;20.918;2024-03-25T09:59:35;3.72;;;3.40;;
79664;SDS011;69132;44.014;20.918;2024-03-25T10:02:02;7.78;;;3.38;;
79664;SDS011;69132;44.014;20.918;2024-03-25T10:04:28;3.78;;;3.30;;
79664;SDS011;69132;44.014;20.918;2024-03-25T10:06:58;7.28;;;2.45;;
79664;SDS011;69132;44.014;20.918;2024-03-25T10:09:24;4.22;;;2.53;;
79664;SDS011;69132;44.014;20.918;2024-03-25T10:14:18;5.63;;;3.13;;
79664;SDS011;69132;44.014;20.918;2024-03-25T10:16:48;6.80;;;3.65;;
79664;SDS011;69132;44.014;20.918;2024-03-25T10:19:17;5.20;;;2.45;;
79664;SDS011;69132;44.014;20.918;2024-03-25T10:21:48;5.80;;;3.25;;
79664;SDS011;69132;44.014;20.918;2024-03-25T10:24:16;4.10;;;2.63;;
79664;SDS011;69132;44.014;20.918;2024-03-25T10:26:42;6.53;;;2.90;;
79664;SDS011;69132;44.014;20.918;2024-03-25T10:29:08;2.05;;;1.70;;
79664;SDS011;69132;44.014;20.918;2024-03-25T10:31:35;3.35;;;2.10;;
79664;SDS011;69132;44.014;20.918;2024-03-25T10:34:02;4.07;;;2.47;;
79664;SDS011;69132;44.014;20.918;2024-03-25T10:36:31;7.63;;;3.10;;
79664;SDS011;69132;44.014;20.918;2024-03-25T10:39:00;5.22;;;2.67;;
79664;SDS011;69132;44.014;20.918;2024-03-25T10:41:27;5.22;;;3.42;;
79664;SDS011;69132;44.014;20.918;2024-03-25T10:43:56;4.00;;;2.78;;
79664;SDS011;69132;44.014;20.918;2024-03-25T10:46:25;4.53;;;2.75;;
79664;SDS011;69132;44.014;20.918;2024-03-25T10:48:56;3.20;;;2.50;;
79664;SDS011;69132;44.014;20.918;2024-03-25T10:51:27;3.72;;;2.70;;
79664;SDS011;69132;44.014;20.918;2024-03-25T10:53:54;5.88;;;2.42;;
79664;SDS011;69132;44.014;20.918;2024-03-25T10:56:21;3.95;;;2.30;;
79664;SDS011;69132;44.014;20.918;2024-03-25T10:58:50;9.90;;;3.15;;
79664;SDS011;69132;44.014;20.918;2024-03-25T11:01:19;4.10;;;2.28;;
79664;SDS011;69132;44.014;20.918;2024-03-25T11:03:46;7.68;;;3.10;;
79664;SDS011;69132;44.014;20.918;2024-03-25T11:06:15;5.05;;;2.97;;
79664;SDS011;69132;44.014;20.918;2024-03-25T11:08:58;6.13;;;3.40;;
79664;SDS011;69132;44.014;20.918;2024-03-25T11:11:34;6.57;;;3.72;;
79664;SDS011;69132;44.014;20.918;2024-03-25T11:14:03;6.30;;;3.55;;
79664;SDS011;69132;44.014;20.918;2024-03-25T11:16:31;9.00;;;3.67;;
79664;SDS011;69132;44.014;20.918;2024-03-25T11:19:04;7.47;;;3.77;;
79664;SDS011;69132;44.014;20.918;2024-03-25T11:21:32;5.88;;;3.13;;
79664;SDS011;69132;44.014;20.918;2024-03-25T11:24:08;6.75;;;3.72;;
79664;SDS011;69132;44.014;20.918;2024-03-25T11:26:40;5.30;;;3.65;;
79664;SDS011;69132;44.014;20.918;2024-03-25T11:29:09;7.65;;;4.75;;
79664;SDS011;69132;44.014;20.918;2024-03-25T11:31:38;10.85;;;3.95;;
79664;SDS011;69132;44.014;20.918;2024-03-25T11:34:06;7.43;;;4.00;;
79664;SDS011;69132;44.014;20.918;2024-03-25T11:36:33;3.97;;;3.42;;
79664;SDS011;69132;44.014;20.918;2024-03-25T11:39:04;4.97;;;4.40;;
79664;SDS011;69132;44.014;20.918;2024-03-25T11:41:34;4.22;;;3.78;;
79664;SDS011;69132;44.014;20.918;2024-03-25T11:44:01;7.03;;;3.80;;
79664;SDS011;69132;44.014;20.918;2024-03-25T11:46:29;11.00;;;4.03;;
79664;SDS011;69132;44.014;20.918;2024-03-25T11:48:56;4.63;;;2.90;;
79664;SDS011;69132;44.014;20.918;2024-03-25T11:51:23;6.22;;;3.22;;
79664;SDS011;69132;44.014;20.918;2024-03-25T11:53:49;6.65;;;3.58;;
79664;SDS011;69132;44.014;20.918;2024-03-25T11:56:16;3.45;;;3.05;;
79664;SDS011;69132;44.014;20.918;2024-03-25T11:58:44;3.25;;;2.08;;
79664;SDS011;69132;44.014;20.918;2024-03-25T12:01:10;4.80;;;2.50;;
79664;SDS011;69132;44.014;20.918;2024-03-25T12:03:37;4.93;;;2.80;;
79664;SDS011;69132;44.014;20.918;2024-03-25T12:06:03;7.95;;;3.40;;
79664;SDS011;69132;44.014;20.918;2024-03-25T12:08:29;6.43;;;3.72;;
79664;SDS011;69132;44.014;20.918;2024-03-25T12:13:42;4.15;;;2.92;;
79664;SDS011;69132;44.014;20.918;2024-03-25T12:16:09;7.10;;;3.60;;
79664;SDS011;69132;44.014;20.918;2024-03-25T12:18:36;9.10;;;3.55;;
79664;SDS011;69132;44.014;20.918;2024-03-25T12:21:07;6.15;;;3.40;;
79664;SDS011;69132;44.014;20.918;2024-03-25T12:23:33;2.85;;;2.45;;
79664;SDS011;69132;44.014;20.918;2024-03-25T12:26:00;4.95;;;3.03;;
79664;SDS011;69132;44.014;20.918;2024-03-25T12:28:27;11.00;;;3.50;;
79664;SDS011;69132;44.014;20.918;2024-03-25T12:30:53;3.58;;;2.90;;
79664;SDS011;69132;44.014;20.918;2024-03-25T12:33:22;3.97;;;3.07;;
79664;SDS011;69132;44.014;20.918;2024-03-25T12:35:49;5.20;;;3.20;;
79664;SDS011;69132;44.014;20.918;2024-03-25T12:38:23;4.40;;;2.45;;
79664;SDS011;69132;44.014;20.918;2024-03-25T12:40:49;6.88;;;3.88;;
79664;SDS011;69132;44.014;20.918;2024-03-25T12:43:15;5.68;;;2.85;;
79664;SDS011;69132;44.014;20.918;2024-03-25T12:45:42;7.22;;;2.95;;
79664;SDS011;69132;44.014;20.918;2024-03-25T12:48:08;3.75;;;2.60;;
79664;SDS011;69132;44.014;20.918;2024-03-25T12:50:34;3.15;;;2.20;;
79664;SDS011;69132;44.014;20.918;2024-03-25T12:53:01;5.53;;;2.40;;
79664;SDS011;69132;44.014;20.918;2024-03-25T12:55:28;7.13;;;2.92;;
79664;SDS011;69132;44.014;20.918;2024-03-25T12:57:57;6.20;;;3.97;;
79664;SDS011;69132;44.014;20.918;2024-03-25T13:00:23;3.45;;;2.90;;
79664;SDS011;69132;44.014;20.918;2024-03-25T13:02:51;11.18;;;2.85;;
79664;SDS011;69132;44.014;20.918;2024-03-25T13:05:17;5.82;;;3.03;;
79664;SDS011;69132;44.014;20.918;2024-03-25T13:07:43;4.05;;;2.85;;
79664;SDS011;69132;44.014;20.918;2024-03-25T13:10:09;3.60;;;2.78;;
79664;SDS011;69132;44.014;20.918;2024-03-25T13:12:37;3.90;;;2.63;;
79664;SDS011;69132;44.014;20.918;2024-03-25T13:15:03;3.30;;;2.80;;
79664;SDS011;69132;44.014;20.918;2024-03-25T13:17:30;5.18;;;3.03;;
79664;SDS011;69132;44.014;20.918;2024-03-25T13:19:57;8.73;;;3.42;;
79664;SDS011;69132;44.014;20.918;2024-03-25T13:22:24;5.90;;;3.20;;
79664;SDS011;69132;44.014;20.918;2024-03-25T13:24:50;4.07;;;2.30;;
79664;SDS011;69132;44.014;20.918;2024-03-25T13:27:16;4.45;;;2.22;;
79664;SDS011;69132;44.014;20.918;2024-03-25T13:29:42;3.85;;;2.40;;
79664;SDS011;69132;44.014;20.918;2024-03-25T13:32:09;13.20;;;3.53;;
79664;SDS011;69132;44.014;20.918;2024-03-25T13:34:35;11.68;;;4.93;;
79664;SDS011;69132;44.014;20.918;2024-03-25T13:37:02;4.00;;;2.97;;
79664;SDS011;69132;44.014;20.918;2024-03-25T13:39:30;2.95;;;2.40;;
79664;SDS011;69132;44.014;20.918;2024-03-25T13:41:56;9.88;;;2.72;;
79664;SDS011;69132;44.014;20.918;2024-03-25T13:44:24;3.08;;;2.40;;
79664;SDS011;69132;44.014;20.918;2024-03-25T13:46:50;7.47;;;3.10;;
79664;SDS011;69132;44.014;20.918;2024-03-25T13:51:45;2.53;;;2.28;;
79664;SDS011;69132;44.014;20.918;2024-03-25T13:54:12;2.53;;;1.70;;
79664;SDS011;69132;44.014;20.918;2024-03-25T13:56:41;2.97;;;1.70;;
79664;SDS011;69132;44.014;20.918;2024-03-25T13:59:10;3.70;;;2.08;;
79664;SDS011;69132;44.014;20.918;2024-03-25T14:01:36;4.35;;;2.13;;
79664;SDS011;69132;44.014;20.918;2024-03-25T14:04:05;5.30;;;2.08;;
79664;SDS011;69132;44.014;20.918;2024-03-25T14:06:31;4.38;;;1.92;;
79664;SDS011;69132;44.014;20.918;2024-03-25T14:08:58;4.93;;;2.42;;
79664;SDS011;69132;44.014;20.918;2024-03-25T14:11:24;3.65;;;3.00;;
79664;SDS011;69132;44.014;20.918;2024-03-25T14:13:50;4.18;;;2.00;;
79664;SDS011;69132;44.014;20.918;2024-03-25T14:16:17;3.00;;;1.77;;
79664;SDS011;69132;44.014;20.918;2024-03-25T14:18:47;4.28;;;3.38;;
79664;SDS011;69132;44.014;20.918;2024-03-25T14:21:13;5.55;;;2.30;;
79664;SDS011;69132;44.014;20.918;2024-03-25T14:23:40;4.03;;;1.90;;
79664;SDS011;69132;44.014;20.918;2024-03-25T14:26:08;2.37;;;1.77;;
79664;SDS011;69132;44.014;20.918;2024-03-25T14:28:35;3.78;;;1.55;;
79664;SDS011;69132;44.014;20.918;2024-03-25T14:31:02;4.47;;;1.50;;
79664;SDS011;69132;44.014;20.918;2024-03-25T14:33:30;4.18;;;2.50;;
79664;SDS011;69132;44.014;20.918;2024-03-25T14:35:56;3.33;;;2.13;;
79664;SDS011;69132;44.014;20.918;2024-03-25T14:38:24;5.82;;;2.50;;
79664;SDS011;69132;44.014;20.918;2024-03-25T14:40:52;7.80;;;3.25;;
79664;SDS011;69132;44.014;20.918;2024-03-25T14:43:18;2.42;;;2.00;;
79664;SDS011;69132;44.014;20.918;2024-03-25T14:45:45;4.57;;;1.67;;
79664;SDS011;69132;44.014;20.918;2024-03-25T14:48:11;6.40;;;2.15;;
79664;SDS011;69132;44.014;20.918;2024-03-25T14:50:39;3.38;;;2.10;;
79664;SDS011;69132;44.014;20.918;2024-03-25T14:53:05;7.20;;;2.42;;
79664;SDS011;69132;44.014;20.918;2024-03-25T14:55:32;3.33;;;1.70;;
79664;SDS011;69132;44.014;20.918;2024-03-25T14:57:58;4.53;;;1.90;;
79664;SDS011;69132;44.014;20.918;2024-03-25T15:00:24;8.73;;;4.18;;
79664;SDS011;69132;44.014;20.918;2024-03-25T15:02:51;5.07;;;3.10;;
79664;SDS011;69132;44.014;20.918;2024-03-25T15:05:17;5.22;;;2.55;;
79664;SDS011;69132;44.014;20.918;2024-03-25T15:07:44;3.78;;;2.15;;
79664;SDS011;69132;44.014;20.918;2024-03-25T15:10:10;5.10;;;2.65;;
79664;SDS011;69132;44.014;20.918;2024-03-25T15:12:40;3.20;;;2.25;;
79664;SDS011;69132;44.014;20.918;2024-03-25T15:15:10;6.75;;;2.30;;
79664;SDS011;69132;44.014;20.918;2024-03-25T15:17:36;3.80;;;2.60;;
79664;SDS011;69132;44.014;20.918;2024-03-25T15:20:04;3.75;;;2.40;;
79664;SDS011;69132;44.014;20.918;2024-03-25T15:22:30;7.80;;;3.20;;
79664;SDS011;69132;44.014;20.918;2024-03-25T15:24:56;7.00;;;3.22;;
79664;SDS011;69132;44.014;20.918;2024-03-25T15:27:26;6.55;;;3.65;;
79664;SDS011;69132;44.014;20.918;2024-03-25T15:29:53;8.60;;;3.28;;
79664;SDS011;69132;44.014;20.918;2024-03-25T15:32:19;8.27;;;3.53;;
79664;SDS011;69132;44.014;20.918;2024-03-25T15:34:45;5.68;;;2.97;;
79664;SDS011;69132;44.014;20.918;2024-03-25T15:37:11;8.27;;;3.30;;
79664;SDS011;69132;44.014;20.918;2024-03-25T15:39:37;12.05;;;3.80;;
79664;SDS011;69132;44.014;20.918;2024-03-25T15:42:04;6.53;;;2.53;;
79664;SDS011;69132;44.014;20.918;2024-03-25T15:44:31;5.35;;;3.30;;
79664;SDS011;69132;44.014;20.918;2024-03-25T15:46:57;6.00;;;2.83;;
79664;SDS011;69132;44.014;20.918;2024-03-25T15:49:24;8.32;;;3.50;;
79664;SDS011;69132;44.014;20.918;2024-03-25T15:51:51;5.55;;;3.20;;
79664;SDS011;69132;44.014;20.918;2024-03-25T15:54:20;7.57;;;3.83;;
79664;SDS011;69132;44.014;20.918;2024-03-25T15:56:47;8.18;;;3.45;;
79664;SDS011;69132;44.014;20.918;2024-03-25T15:59:13;6.57;;;3.78;;
79664;SDS011;69132;44.014;20.918;2024-03-25T16:01:40;4.95;;;3.53;;
79664;SDS011;69132;44.014;20.918;2024-03-25T16:04:06;7.43;;;4.35;;
79664;SDS011;69132;44.014;20.918;2024-03-25T16:06:32;9.52;;;4.50;;
79664;SDS011;69132;44.014;20.918;2024-03-25T16:09:00;8.75;;;4.10;;
79664;SDS011;69132;44.014;20.918;2024-03-25T16:11:27;5.67;;;4.10;;
79664;SDS011;69132;44.014;20.918;2024-03-25T16:13:53;7.45;;;3.15;;
79664;SDS011;69132;44.014;20.918;2024-03-25T16:16:20;7.43;;;3.17;;
79664;SDS011;69132;44.014;20.918;2024-03-25T16:18:47;5.40;;;3.72;;
79664;SDS011;69132;44.014;20.918;2024-03-25T16:21:14;6.80;;;4.05;;
79664;SDS011;69132;44.014;20.918;2024-03-25T16:23:41;8.15;;;4.25;;
79664;SDS011;69132;44.014;20.918;2024-03-25T16:26:08;11.80;;;5.15;;
79664;SDS011;69132;44.014;20.918;2024-03-25T16:28:36;7.37;;;4.53;;
79664;SDS011;69132;44.014;20.918;2024-03-25T16:33:30;7.18;;;4.50;;
79664;SDS011;69132;44.014;20.918;2024-03-25T16:35:57;8.63;;;4.13;;
79664;SDS011;69132;44.014;20.918;2024-03-25T16:38:23;11.73;;;7.93;;
79664;SDS011;69132;44.014;20.918;2024-03-25T16:40:50;7.88;;;5.53;;
79664;SDS011;69132;44.014;20.918;2024-03-25T16:43:24;9.02;;;5.30;;
79664;SDS011;69132;44.014;20.918;2024-03-25T16:45:55;5.95;;;4.75;;
79664;SDS011;69132;44.014;20.918;2024-03-25T16:48:21;8.15;;;4.28;;
79664;SDS011;69132;44.014;20.918;2024-03-25T16:53:18;8.80;;;4.70;;
79664;SDS011;69132;44.014;20.918;2024-03-25T16:55:48;8.18;;;4.50;;
79664;SDS011;69132;44.014;20.918;2024-03-25T16:58:15;9.45;;;4.63;;
79664;SDS011;69132;44.014;20.918;2024-03-25T17:00:41;8.75;;;4.70;;
79664;SDS011;69132;44.014;20.918;2024-03-25T17:03:07;6.80;;;5.32;;
79664;SDS011;69132;44.014;20.918;2024-03-25T17:05:34;9.90;;;5.85;;
79664;SDS011;69132;44.014;20.918;2024-03-25T17:10:31;7.47;;;4.65;;
79664;SDS011;69132;44.014;20.918;2024-03-25T17:12:57;10.00;;;6.55;;
79664;SDS011;69132;44.014;20.918;2024-03-25T17:15:27;9.70;;;6.55;;
79664;SDS011;69132;44.014;20.918;2024-03-25T17:17:53;13.95;;;9.48;;
79664;SDS011;69132;44.014;20.918;2024-03-25T17:20:19;13.93;;;9.00;;
79664;SDS011;69132;44.014;20.918;2024-03-25T17:22:46;24.52;;;17.10;;
79664;SDS011;69132;44.014;20.918;2024-03-25T17:25:12;20.88;;;11.30;;
79664;SDS011;69132;44.014;20.918;2024-03-25T17:27:38;12.63;;;9.48;;
79664;SDS011;69132;44.014;20.918;2024-03-25T17:30:05;10.35;;;8.10;;
79664;SDS011;69132;44.014;20.918;2024-03-25T17:32:32;12.30;;;7.55;;
79664;SDS011;69132;44.014;20.918;2024-03-25T17:34:58;50.75;;;35.25;;
79664;SDS011;69132;44.014;20.918;2024-03-25T17:37:24;82.30;;;55.47;;
79664;SDS011;69132;44.014;20.918;2024-03-25T17:39:50;95.28;;;61.28;;
79664;SDS011;69132;44.014;20.918;2024-03-25T17:42:18;92.60;;;63.80;;
79664;SDS011;69132;44.014;20.918;2024-03-25T17:44:48;87.47;;;58.13;;
79664;SDS011;69132;44.014;20.918;2024-03-25T17:47:14;91.72;;;59.25;;
79664;SDS011;69132;44.014;20.918;2024-03-25T17:49:41;95.05;;;62.80;;
79664;SDS011;69132;44.014;20.918;2024-03-25T17:52:07;102.90;;;63.72;;
79664;SDS011;69132;44.014;20.918;2024-03-25T17:54:33;99.88;;;63.47;;
79664;SDS011;69132;44.014;20.918;2024-03-25T17:56:59;81.88;;;56.55;;
79664;SDS011;69132;44.014;20.918;2024-03-25T17:59:26;67.63;;;45.95;;
79664;SDS011;69132;44.014;20.918;2024-03-25T18:01:53;62.00;;;40.33;;
79664;SDS011;69132;44.014;20.918;2024-03-25T18:04:19;51.90;;;36.25;;
79664;SDS011;69132;44.014;20.918;2024-03-25T18:06:45;47.65;;;32.38;;
79664;SDS011;69132;44.014;20.918;2024-03-25T18:09:11;45.38;;;32.10;;
79664;SDS011;69132;44.014;20.918;2024-03-25T18:11:41;43.83;;;29.92;;
79664;SDS011;69132;44.014;20.918;2024-03-25T18:14:08;35.08;;;24.35;;
79664;SDS011;69132;44.014;20.918;2024-03-25T18:16:34;25.35;;;16.77;;
79664;SDS011;69132;44.014;20.918;2024-03-25T18:19:01;29.83;;;16.73;;
79664;SDS011;69132;44.014;20.918;2024-03-25T18:21:28;20.17;;;13.85;;
79664;SDS011;69132;44.014;20.918;2024-03-25T18:23:54;29.50;;;17.58;;
79664;SDS011;69132;44.014;20.918;2024-03-25T18:26:21;32.30;;;20.88;;
79664;SDS011;69132;44.014;20.918;2024-03-25T18:28:47;35.05;;;21.48;;
79664;SDS011;69132;44.014;20.918;2024-03-25T18:31:15;31.55;;;23.55;;
79664;SDS011;69132;44.014;20.918;2024-03-25T18:33:41;31.23;;;22.70;;
79664;SDS011;69132;44.014;20.918;2024-03-25T18:36:07;34.35;;;23.58;;
79664;SDS011;69132;44.014;20.918;2024-03-25T18:38:33;38.03;;;24.48;;
79664;SDS011;69132;44.014;20.918;2024-03-25T18:40:59;37.05;;;25.00;;
79664;SDS011;69132;44.014;20.918;2024-03-25T18:43:25;48.17;;;27.80;;
79664;SDS011;69132;44.014;20.918;2024-03-25T18:45:52;37.53;;;26.52;;
79664;SDS011;69132;44.014;20.918;2024-03-25T18:48:19;33.42;;;22.98;;
79664;SDS011;69132;44.014;20.918;2024-03-25T18:50:45;37.25;;;22.42;;
79664;SDS011;69132;44.014;20.918;2024-03-25T18:53:11;36.40;;;26.77;;
79664;SDS011;69132;44.014;20.918;2024-03-25T18:55:37;43.03;;;26.38;;
79664;SDS011;69132;44.014;20.918;2024-03-25T18:58:03;37.50;;;26.60;;
79664;SDS011;69132;44.014;20.918;2024-03-25T19:02:59;41.03;;;28.73;;
79664;SDS011;69132;44.014;20.918;2024-03-25T19:05:26;52.45;;;32.10;;
79664;SDS011;69132;44.014;20.918;2024-03-25T19:07:52;53.83;;;36.80;;
79664;SDS011;69132;44.014;20.918;2024-03-25T19:10:19;52.72;;;37.25;;
79664;SDS011;69132;44.014;20.918;2024-03-25T19:12:47;61.85;;;40.35;;
79664;SDS011;69132;44.014;20.918;2024-03-25T19:15:13;52.88;;;39.17;;